createdAt,value
2018-04-23T00:01:03.265Z,17.60
2018-04-23T00:03:30.766Z,17.50
2018-04-23T00:05:59.029Z,17.50
2018-04-23T00:08:26.509Z,17.50
2018-04-23T00:10:54.930Z,17.30
2018-04-23T00:13:22.544Z,17.40
2018-04-23T00:15:50.802Z,17.30
2018-04-23T00:18:18.317Z,17.30
2018-04-23T00:20:45.807Z,17.30
2018-04-23T00:23:13.325Z,17.40
2018-04-23T00:25:40.801Z,17.30
2018-04-23T00:28:08.344Z,17.30
2018-04-23T00:30:35.849Z,17.20
2018-04-23T00:33:03.350Z,17.10
2018-04-23T00:35:30.865Z,17.10
2018-04-23T00:37:58.373Z,17.10
2018-04-23T00:40:25.849Z,17.10
2018-04-23T00:42:53.359Z,17.00
2018-04-23T00:45:21.628Z,16.90
2018-04-23T00:47:49.906Z,16.90
2018-04-23T00:50:18.148Z,16.80
2018-04-23T00:52:45.625Z,16.80
2018-04-23T00:55:13.141Z,16.80
2018-04-23T00:57:40.616Z,16.80
2018-04-23T01:00:08.136Z,16.70
2018-04-23T01:02:35.634Z,16.60
2018-04-23T01:05:03.118Z,16.60
2018-04-23T01:07:30.642Z,16.70
2018-04-23T01:09:58.181Z,16.60
2018-04-23T01:12:25.690Z,16.50
2018-04-23T01:14:53.188Z,16.40
2018-04-23T01:17:20.679Z,16.50
2018-04-23T01:19:48.187Z,16.40
2018-04-23T01:22:16.428Z,16.20
2018-04-23T01:24:43.932Z,16.20
2018-04-23T01:27:11.409Z,16.20
2018-04-23T01:29:38.893Z,15.80
2018-04-23T01:32:06.386Z,15.70
2018-04-23T01:34:34.628Z,15.70
2018-04-23T01:37:02.140Z,15.70
2018-04-23T01:39:29.638Z,15.70
2018-04-23T01:41:57.124Z,15.70
2018-04-23T01:44:24.891Z,15.60
2018-04-23T01:46:52.456Z,15.70
2018-04-23T01:49:20.724Z,15.50
2018-04-23T01:51:48.229Z,15.40
2018-04-23T01:54:15.712Z,15.40
2018-04-23T01:56:43.212Z,15.30
2018-04-23T01:59:11.528Z,15.30
2018-04-23T02:01:39.019Z,15.20
2018-04-23T02:04:06.500Z,15.20
2018-04-23T02:06:34.752Z,15.20
2018-04-23T02:09:02.262Z,15.20
2018-04-23T02:11:29.755Z,15.30
2018-04-23T02:13:57.263Z,15.20
2018-04-23T02:16:25.518Z,15.10
2018-04-23T02:18:53.074Z,15.10
2018-04-23T02:21:20.582Z,15.00
2018-04-23T02:23:48.075Z,15.00
2018-04-23T02:26:15.596Z,15.10
2018-04-23T02:28:43.086Z,15.10
2018-04-23T02:31:10.582Z,15.00
2018-04-23T02:33:38.846Z,15.10
2018-04-23T02:36:06.343Z,15.10
2018-04-23T02:38:33.854Z,15.10
2018-04-23T02:41:01.350Z,15.00
2018-04-23T02:43:28.851Z,15.20
2018-04-23T02:45:56.349Z,15.20
2018-04-23T02:48:24.617Z,15.00
2018-04-23T02:50:52.935Z,15.10
2018-04-23T02:53:20.427Z,15.10
2018-04-23T02:55:47.908Z,15.20
2018-04-23T02:58:16.182Z,15.10
2018-04-23T03:00:44.448Z,15.10
2018-04-23T03:03:11.963Z,15.10
2018-04-23T03:05:39.456Z,15.00
2018-04-23T03:08:06.959Z,15.20
2018-04-23T03:10:34.471Z,15.40
2018-04-23T03:13:01.965Z,15.40
2018-04-23T03:15:29.469Z,15.40
2018-04-23T03:17:56.963Z,15.30
2018-04-23T03:20:24.463Z,15.20
2018-04-23T03:22:51.965Z,15.20
2018-04-23T03:25:19.462Z,15.20
2018-04-23T03:27:46.973Z,15.10
2018-04-23T03:30:14.449Z,15.00
2018-04-23T03:32:41.946Z,15.00
2018-04-23T03:35:09.454Z,15.00
2018-04-23T03:37:36.950Z,14.90
2018-04-23T03:40:04.478Z,14.90
2018-04-23T03:42:31.962Z,14.90
2018-04-23T03:45:00.225Z,14.90
2018-04-23T03:47:28.487Z,14.80
2018-04-23T03:49:55.991Z,14.80
2018-04-23T03:52:23.542Z,14.70
2018-04-23T03:54:51.038Z,14.70
2018-04-23T03:57:18.534Z,14.70
2018-04-23T03:59:46.828Z,14.70
2018-04-23T04:02:14.313Z,14.70
2018-04-23T04:04:42.678Z,14.60
2018-04-23T04:07:10.170Z,14.50
2018-04-23T04:09:37.666Z,14.40
2018-04-23T04:12:17.866Z,14.40
2018-04-23T04:14:57.205Z,14.40
2018-04-23T04:17:36.692Z,14.40
2018-04-23T04:20:04.945Z,14.40
2018-04-23T04:22:32.483Z,14.30
2018-04-23T04:25:00.125Z,14.30
2018-04-23T04:27:27.628Z,14.40
2018-04-23T04:29:55.155Z,14.40
2018-04-23T04:32:22.652Z,14.30
2018-04-23T04:34:50.326Z,14.20
2018-04-23T04:37:18.588Z,14.20
2018-04-23T04:39:46.083Z,14.10
2018-04-23T04:42:13.616Z,14.20
2018-04-23T04:44:41.896Z,14.20
2018-04-23T04:47:10.239Z,14.20
2018-04-23T04:49:37.722Z,14.20
2018-04-23T04:52:06.159Z,14.20
2018-04-23T04:54:33.695Z,14.30
2018-04-23T04:57:01.203Z,14.20
2018-04-23T04:59:28.747Z,14.30
2018-04-23T05:01:56.258Z,14.30
2018-04-23T05:04:24.559Z,14.40
2018-04-23T05:06:52.175Z,14.40
2018-04-23T05:09:20.484Z,14.70
2018-04-23T05:11:48.078Z,14.60
2018-04-23T05:14:15.641Z,14.70
2018-04-23T05:16:43.136Z,14.80
2018-04-23T05:19:11.428Z,14.90
2018-04-23T05:21:39.701Z,15.00
2018-04-23T05:24:07.299Z,15.00
2018-04-23T05:26:34.786Z,15.00
2018-04-23T05:29:02.312Z,15.10
2018-04-23T05:31:29.921Z,15.30
2018-04-23T05:33:57.431Z,15.30
2018-04-23T05:36:25.832Z,15.40
2018-04-23T05:38:53.343Z,15.50
2018-04-23T05:41:20.880Z,15.60
2018-04-23T05:43:49.175Z,15.70
2018-04-23T05:46:16.794Z,15.70
2018-04-23T05:48:44.327Z,15.80
2018-04-23T05:51:11.831Z,15.80
2018-04-23T05:53:40.115Z,15.80
2018-04-23T05:56:08.509Z,15.90
2018-04-23T05:58:36.026Z,15.90
2018-04-23T06:01:03.573Z,16.00
2018-04-23T06:03:31.099Z,16.00
2018-04-23T06:05:58.613Z,16.00
2018-04-23T06:08:26.122Z,16.10
2018-04-23T06:10:53.662Z,16.20
2018-04-23T06:13:21.202Z,16.20
2018-04-23T06:15:49.469Z,16.40
2018-04-23T06:18:16.993Z,16.40
2018-04-23T06:20:44.552Z,16.60
2018-04-23T06:23:12.072Z,16.70
2018-04-23T06:25:39.629Z,16.80
2018-04-23T06:28:07.149Z,17.00
2018-04-23T06:30:35.487Z,17.30
2018-04-23T06:33:03.003Z,17.20
2018-04-23T06:35:31.276Z,17.50
2018-04-23T06:37:59.549Z,17.60
2018-04-23T06:40:27.072Z,17.60
2018-04-23T06:42:54.565Z,17.70
2018-04-23T06:45:22.090Z,17.80
2018-04-23T06:47:49.585Z,18.10
2018-04-23T06:50:17.876Z,18.30
2018-04-23T06:52:46.198Z,18.40
2018-04-23T06:55:13.726Z,18.30
2018-04-23T06:57:41.247Z,18.50
2018-04-23T07:00:08.840Z,18.60
2018-04-23T07:02:36.406Z,18.70
2018-04-23T07:05:04.023Z,18.80
2018-04-23T07:07:32.208Z,19.20
2018-04-23T07:09:59.747Z,19.20
2018-04-23T07:12:27.289Z,19.30
2018-04-23T07:14:54.876Z,19.30
2018-04-23T07:17:22.399Z,19.30
2018-04-23T07:19:49.943Z,19.50
2018-04-23T07:22:18.051Z,19.80
2018-04-23T07:24:45.546Z,20.00
2018-04-23T07:27:15.161Z,20.30
2018-04-23T07:29:43.435Z,20.60
2018-04-23T07:32:11.725Z,21.40
2018-04-23T07:34:39.246Z,21.40
2018-04-23T07:37:06.783Z,21.70
2018-04-23T07:39:34.322Z,22.40
2018-04-23T07:42:02.696Z,23.40
2018-04-23T07:44:30.233Z,24.10
2018-04-23T07:46:57.782Z,24.40
2018-04-23T07:49:26.088Z,23.90
2018-04-23T07:51:53.609Z,23.90
2018-04-23T07:54:21.898Z,26.10
2018-04-23T07:56:50.169Z,26.90
2018-04-23T07:59:17.756Z,26.90
2018-04-23T08:01:45.287Z,27.30
2018-04-23T08:04:13.598Z,28.00
2018-04-23T08:06:46.885Z,27.90
2018-04-23T08:09:14.690Z,28.60
2018-04-23T08:11:42.220Z,28.70
2018-04-23T08:14:09.843Z,29.00
2018-04-23T08:16:38.162Z,29.60
2018-04-23T08:19:05.758Z,29.50
2018-04-23T08:21:34.110Z,29.50
2018-04-23T08:24:01.658Z,28.80
2018-04-23T08:26:29.154Z,30.40
2018-04-23T08:28:57.578Z,31.40
2018-04-23T08:31:26.782Z,31.30
2018-04-23T08:33:54.915Z,31.70
2018-04-23T08:36:24.013Z,32.00
2018-04-23T08:38:53.947Z,32.20
2018-04-23T08:41:22.404Z,32.00
2018-04-23T08:43:50.014Z,32.00
2018-04-23T08:46:17.739Z,32.80
2018-04-23T08:48:46.249Z,33.50
2018-04-23T08:51:13.797Z,33.50
2018-04-23T08:53:41.420Z,33.50
2018-04-23T08:56:09.013Z,33.20
2018-04-23T08:58:37.343Z,34.20
2018-04-23T09:01:04.909Z,34.20
2018-04-23T09:03:32.566Z,34.50
2018-04-23T09:06:00.206Z,33.60
2018-04-23T09:08:27.801Z,32.50
2018-04-23T09:10:55.522Z,32.90
2018-04-23T09:13:23.163Z,32.60
2018-04-23T09:15:50.807Z,33.80
2018-04-23T09:18:19.116Z,34.10
2018-04-23T09:20:46.753Z,34.00
2018-04-23T09:23:15.065Z,33.70
2018-04-23T09:25:42.888Z,33.60
2018-04-23T09:28:20.791Z,32.70
2018-04-23T09:30:49.142Z,32.30
2018-04-23T09:33:16.861Z,32.20
2018-04-23T09:35:44.703Z,31.60
2018-04-23T09:38:13.081Z,33.60
2018-04-23T09:40:46.515Z,33.20
2018-04-23T09:43:14.221Z,33.20
2018-04-23T09:45:41.770Z,33.70
2018-04-23T09:48:09.453Z,33.90
2018-04-23T09:50:38.067Z,32.90
2018-04-23T09:53:05.706Z,33.00
2018-04-23T09:55:34.011Z,31.20
2018-04-23T09:58:05.905Z,31.10
2018-04-23T10:00:33.604Z,32.10
2018-04-23T10:03:08.840Z,33.20
2018-04-23T10:05:37.222Z,32.90
2018-04-23T10:08:08.872Z,33.10
2018-04-23T10:10:37.234Z,32.90
2018-04-23T10:13:07.817Z,32.80
2018-04-23T10:15:35.371Z,32.20
2018-04-23T10:18:02.982Z,31.60
2018-04-23T10:20:30.590Z,30.70
2018-04-23T10:22:58.226Z,30.00
2018-04-23T10:25:39.607Z,29.30
2018-04-23T10:28:08.220Z,28.80
2018-04-23T10:30:35.742Z,28.80
2018-04-23T10:33:07.232Z,28.70
2018-04-23T10:35:34.817Z,28.70
2018-04-23T10:38:02.430Z,28.80
2018-04-23T10:40:29.984Z,29.30
2018-04-23T10:42:58.265Z,29.70
2018-04-23T10:45:26.632Z,29.80
2018-04-23T10:47:54.935Z,30.00
2018-04-23T10:50:22.503Z,30.00
2018-04-23T10:52:50.022Z,30.60
2018-04-23T10:55:19.058Z,30.80
2018-04-23T10:57:46.621Z,30.80
2018-04-23T11:00:14.163Z,31.10
2018-04-23T11:02:41.736Z,31.30
2018-04-23T11:05:09.267Z,31.90
2018-04-23T11:07:37.555Z,31.90
2018-04-23T11:10:05.880Z,32.30
2018-04-23T11:12:33.456Z,32.30
2018-04-23T11:15:01.038Z,33.00
2018-04-23T11:17:29.551Z,32.50
2018-04-23T11:20:12.781Z,32.40
2018-04-23T11:22:44.316Z,32.90
2018-04-23T11:25:23.859Z,32.50
2018-04-23T11:27:51.735Z,32.50
2018-04-23T11:32:55.609Z,31.50
2018-04-23T11:35:39.026Z,31.60
2018-04-23T11:38:19.758Z,32.10
2018-04-23T11:40:52.565Z,32.00
2018-04-23T11:45:56.839Z,32.70
2018-04-23T11:48:40.044Z,32.50
2018-04-23T11:51:14.275Z,32.50
2018-04-23T11:56:58.509Z,33.00
2018-04-23T11:59:32.599Z,33.30
2018-04-23T12:02:10.136Z,33.40
2018-04-23T12:04:45.242Z,33.30
2018-04-23T12:13:26.533Z,33.60
2018-04-23T12:15:54.991Z,33.80
2018-04-23T12:18:28.736Z,33.70
2018-04-23T12:20:57.732Z,34.20
2018-04-23T12:23:40.851Z,32.60
2018-04-23T12:26:14.322Z,32.90
2018-04-23T12:28:43.208Z,34.30
2018-04-23T12:31:18.161Z,34.30
2018-04-23T12:36:50.260Z,34.70
2018-04-23T12:39:19.453Z,34.70
2018-04-23T12:41:47.190Z,34.60
2018-04-23T12:44:22.970Z,34.40
2018-04-23T12:46:50.801Z,34.30
2018-04-23T12:49:34.992Z,34.60
2018-04-23T12:52:18.249Z,34.80
2018-04-23T13:34:05.959Z,34.00
2018-04-23T13:36:33.737Z,33.30
2018-04-23T13:39:02.459Z,34.40
2018-04-23T13:41:34.672Z,34.30
2018-04-23T13:44:02.391Z,35.10
2018-04-23T13:46:43.273Z,34.90
2018-04-23T13:49:11.028Z,34.60
2018-04-23T13:51:39.509Z,34.40
2018-04-23T13:54:07.240Z,33.80
2018-04-23T13:56:35.741Z,32.70
2018-04-23T13:59:03.290Z,32.80
2018-04-23T14:01:31.073Z,31.90
2018-04-23T14:03:58.798Z,31.20
2018-04-23T14:09:10.589Z,31.30
2018-04-23T14:11:38.237Z,31.50
2018-04-23T14:14:06.081Z,31.70
2018-04-23T14:16:33.637Z,31.80
2018-04-23T14:19:01.197Z,30.90
2018-04-23T14:24:10.206Z,31.60
2018-04-23T14:26:38.744Z,30.00
2018-04-23T14:31:42.526Z,29.60
2018-04-23T14:34:10.818Z,28.60
2018-04-23T14:39:32.563Z,28.80
2018-04-23T14:42:10.474Z,28.80
2018-04-23T14:44:42.085Z,29.20
2018-04-23T14:47:10.499Z,27.80
2018-04-23T14:49:38.010Z,27.80
2018-04-23T14:52:05.694Z,27.30
2018-04-23T14:54:34.021Z,26.30
2018-04-23T14:57:01.729Z,26.30
2018-04-23T14:59:30.176Z,25.20
2018-04-23T15:01:59.292Z,25.10
2018-04-23T15:04:28.892Z,24.90
2018-04-23T15:06:58.547Z,24.60
2018-04-23T15:09:26.174Z,24.50
2018-04-23T15:11:53.773Z,24.60
2018-04-23T15:14:21.269Z,24.90
2018-04-23T15:16:49.385Z,25.50
2018-04-23T15:19:18.809Z,25.30
2018-04-23T15:21:46.418Z,25.30
2018-04-23T15:24:14.607Z,25.40
2018-04-23T15:26:43.183Z,25.90
2018-04-23T15:29:11.480Z,25.20
2018-04-23T15:31:39.779Z,24.70
2018-04-23T15:34:07.642Z,24.60
2018-04-23T15:36:35.180Z,24.60
2018-04-23T15:39:05.207Z,23.30
2018-04-23T15:41:33.905Z,23.20
2018-04-23T15:44:01.550Z,22.70
2018-04-23T15:46:29.967Z,22.50
2018-04-23T15:48:58.131Z,22.40
2018-04-23T15:51:25.666Z,22.50
2018-04-23T15:53:53.184Z,22.40
2018-04-23T15:56:22.675Z,22.40
2018-04-23T15:58:50.189Z,22.40
2018-04-23T16:01:17.781Z,22.30
2018-04-23T16:03:45.317Z,22.30
2018-04-23T16:06:12.981Z,22.20
2018-04-23T16:08:40.613Z,22.10
2018-04-23T16:11:09.000Z,22.10
2018-04-23T16:13:40.423Z,22.00
2018-04-23T16:16:08.522Z,22.00
2018-04-23T16:18:36.779Z,21.70
2018-04-23T16:21:04.451Z,21.60
2018-04-23T16:23:32.830Z,21.50
2018-04-23T16:26:01.306Z,21.50
2018-04-23T16:28:29.672Z,21.50
2018-04-23T16:30:57.344Z,21.40
2018-04-23T16:33:26.429Z,21.20
2018-04-23T16:35:53.961Z,21.20
2018-04-23T16:38:21.510Z,21.10
2018-04-23T16:40:49.053Z,21.10
2018-04-23T16:43:16.680Z,21.10
2018-04-23T16:45:57.038Z,21.00
2018-04-23T16:48:25.450Z,20.80
2018-04-23T16:50:53.102Z,20.80
2018-04-23T16:53:20.908Z,21.00
2018-04-23T16:55:53.399Z,21.10
2018-04-23T16:58:20.938Z,21.10
2018-04-23T17:00:48.625Z,21.30
2018-04-23T17:03:16.296Z,21.40
2018-04-23T17:05:43.886Z,21.40
2018-04-23T17:08:11.827Z,21.30
2018-04-23T17:10:39.352Z,21.30
2018-04-23T17:13:06.954Z,21.40
2018-04-23T17:15:37.988Z,21.40
2018-04-23T17:18:05.484Z,21.30
2018-04-23T17:20:33.005Z,21.30
2018-04-23T17:23:00.622Z,21.20
2018-04-23T17:25:28.239Z,20.80
2018-04-23T17:27:56.499Z,20.90
2018-04-23T17:30:24.042Z,20.90
2018-04-23T17:32:52.375Z,20.70
2018-04-23T17:35:19.984Z,20.60
2018-04-23T17:37:47.508Z,20.60
2018-04-23T17:40:15.009Z,20.60
2018-04-23T17:42:43.269Z,20.40
2018-04-23T17:45:11.069Z,20.40
2018-04-23T17:47:39.874Z,20.30
2018-04-23T17:50:07.415Z,20.30
2018-04-23T17:52:35.742Z,20.20
2018-04-23T17:55:03.623Z,20.10
2018-04-23T17:57:31.159Z,20.10
2018-04-23T17:59:58.766Z,20.00
2018-04-23T18:02:26.287Z,20.00
2018-04-23T18:04:53.791Z,19.90
2018-04-23T18:07:22.076Z,19.70
2018-04-23T18:09:50.385Z,19.60
2018-04-23T18:12:17.922Z,19.50
2018-04-23T18:14:45.440Z,19.60
2018-04-23T18:17:12.928Z,19.60
2018-04-23T18:19:41.213Z,19.50
2018-04-23T18:22:09.659Z,19.40
2018-04-23T18:24:37.154Z,19.40
2018-04-23T18:27:04.889Z,19.30
2018-04-23T18:29:32.382Z,19.20
2018-04-23T18:31:59.856Z,19.10
2018-04-23T18:34:27.372Z,19.00
2018-04-23T18:36:55.636Z,19.00
2018-04-23T18:39:23.158Z,18.90
2018-04-23T18:41:50.654Z,19.00
2018-04-23T18:44:18.137Z,18.90
2018-04-23T18:46:46.434Z,18.80
2018-04-23T18:49:13.946Z,18.80
2018-04-23T18:51:41.469Z,18.80
2018-04-23T18:54:08.949Z,18.90
2018-04-23T18:56:36.452Z,18.90
2018-04-23T18:59:03.949Z,18.80
2018-04-23T19:01:31.449Z,18.80
2018-04-23T19:03:58.982Z,18.90
2018-04-23T19:06:26.464Z,18.90
2018-04-23T19:08:54.744Z,19.00
2018-04-23T19:11:23.049Z,18.90
2018-04-23T19:13:50.551Z,18.90
2018-04-23T19:16:18.051Z,18.90
2018-04-23T19:18:45.543Z,18.80
2018-04-23T19:21:13.028Z,18.80
2018-04-23T19:23:40.525Z,18.80
2018-04-23T19:26:09.253Z,18.70
2018-04-23T19:28:36.890Z,18.80
2018-04-23T19:31:04.392Z,18.70
2018-04-23T19:33:31.895Z,18.70
2018-04-23T19:35:59.501Z,18.60
2018-04-23T19:38:26.911Z,18.40
2018-04-23T19:40:54.426Z,18.40
2018-04-23T19:43:21.926Z,18.20
2018-04-23T19:45:49.410Z,18.20
2018-04-23T19:48:17.059Z,18.20
2018-04-23T19:50:44.562Z,18.10
2018-04-23T19:53:12.118Z,18.10
2018-04-23T19:55:40.250Z,18.00
2018-04-23T19:58:08.651Z,17.90
2018-04-23T20:00:36.568Z,17.80
2018-04-23T20:03:04.265Z,17.80
2018-04-23T20:05:32.126Z,17.70
2018-04-23T20:07:59.796Z,17.50
2018-04-23T20:10:27.448Z,17.50
2018-04-23T20:12:55.059Z,17.40
2018-04-23T20:15:23.535Z,17.40
2018-04-23T20:17:52.191Z,17.30
2018-04-23T20:20:19.938Z,17.20
2018-04-23T20:22:47.702Z,17.20
2018-04-23T20:25:16.389Z,16.50
2018-04-23T20:27:44.152Z,16.50
2018-04-23T20:30:12.428Z,16.30
2018-04-23T20:32:40.193Z,16.40
2018-04-23T20:35:08.469Z,16.10
2018-04-23T20:37:37.054Z,16.10
2018-04-23T20:40:04.931Z,16.20
2018-04-23T20:42:33.039Z,16.10
2018-04-23T20:45:01.517Z,16.10
2018-04-23T20:47:30.063Z,16.30
2018-04-23T20:49:58.128Z,16.20
2018-04-23T20:52:25.893Z,16.20
2018-04-23T20:54:54.398Z,16.20
2018-04-23T20:57:22.203Z,16.10
2018-04-23T20:59:50.823Z,16.10
2018-04-23T21:02:18.690Z,16.10
2018-04-23T21:04:47.205Z,16.00
2018-04-23T21:07:15.037Z,16.00
2018-04-23T21:09:42.731Z,15.80
2018-04-23T21:12:10.463Z,15.90
2018-04-23T21:14:38.557Z,15.80
2018-04-23T21:17:06.304Z,15.80
2018-04-23T21:19:34.166Z,15.90
2018-04-23T21:22:01.846Z,15.80
2018-04-23T21:24:29.511Z,15.80
2018-04-23T21:26:57.355Z,15.60
2018-04-23T21:29:26.041Z,15.70
2018-04-23T21:31:53.913Z,15.70
2018-04-23T21:34:21.778Z,15.80
2018-04-23T21:36:49.477Z,15.80
2018-04-23T21:39:18.055Z,15.80
2018-04-23T21:41:46.505Z,15.80
2018-04-23T21:44:14.264Z,15.80
2018-04-23T21:46:42.849Z,15.50
2018-04-23T21:49:10.614Z,15.50
2018-04-23T21:51:38.375Z,15.50
2018-04-23T21:54:06.084Z,15.50
2018-04-23T21:56:34.725Z,15.30
2018-04-23T21:59:02.490Z,15.30
2018-04-23T22:01:30.970Z,15.40
2018-04-23T22:03:59.760Z,15.10
2018-04-23T22:06:27.522Z,15.10
2018-04-23T22:08:55.391Z,15.30
2018-04-23T22:11:23.044Z,15.30
2018-04-23T22:13:50.751Z,15.40
2018-04-23T22:16:18.579Z,15.40
2018-04-23T22:18:46.271Z,15.30
2018-04-23T22:21:13.802Z,15.30
2018-04-23T22:23:41.308Z,15.30
2018-04-23T22:26:09.126Z,15.30
2018-04-23T22:28:36.649Z,15.30
2018-04-23T22:31:04.897Z,15.20
2018-04-23T22:33:32.417Z,15.20
2018-04-23T22:35:59.920Z,15.20
2018-04-23T22:38:27.414Z,15.20
2018-04-23T22:40:54.923Z,15.20
2018-04-23T22:43:22.423Z,15.10
2018-04-23T22:45:50.689Z,14.90
2018-04-23T22:48:18.955Z,14.90
2018-04-23T22:50:46.458Z,14.80
2018-04-23T22:53:13.963Z,14.90
2018-04-23T22:55:41.453Z,14.80
2018-04-23T22:58:09.725Z,14.70
2018-04-23T23:00:37.990Z,14.60
2018-04-23T23:03:06.239Z,14.50
2018-04-23T23:05:33.741Z,14.50
2018-04-23T23:08:01.229Z,14.60
2018-04-23T23:10:28.737Z,14.60
2018-04-23T23:12:57.013Z,14.60
2018-04-23T23:15:25.260Z,14.50
2018-04-23T23:17:52.774Z,14.50
2018-04-23T23:20:20.260Z,14.50
2018-04-23T23:22:47.765Z,14.40
2018-04-23T23:25:16.027Z,14.50
2018-04-23T23:27:43.508Z,14.50
2018-04-23T23:30:11.773Z,14.40
2018-04-23T23:32:40.022Z,14.50
2018-04-23T23:35:07.547Z,14.50
2018-04-23T23:37:35.046Z,14.30
2018-04-23T23:40:02.551Z,14.50
2018-04-23T23:42:30.062Z,14.50
2018-04-23T23:44:57.553Z,14.50
2018-04-23T23:47:25.817Z,14.30
2018-04-23T23:49:54.134Z,14.30
2018-04-23T23:52:21.694Z,14.30
2018-04-23T23:54:49.147Z,14.30
2018-04-23T23:57:16.624Z,14.20
2018-04-23T23:59:44.211Z,14.30
